Delphos, OH (45833)

1:44 AM EDT on August 20, 2014 (GMT -0400)
Acme Weatherstation | Change Station
CLOSE
Current Station
Personal Weather Station
Location: Elida, OH
Elevation: 801 ft
Nearby Weather Stations
Active Advisory: Special Statement

Elev 801 ft 40.77 °N, 84.23 °W | Updated 14 minutes ago

Mostly Cloudy
Mostly Cloudy
68.5 °F
Feels Like 68.5 °F
N
0.0
Wind Variable Wind from NNE

Today
High -- | Low -- °F
--% Chance of Precip.
Yesterday
High -- | Low -- °F
Precip. -- in
6:52 AM 8:28 PM
Waning Crescent, 24% visible
Pressure 29.82 in
Visibility 6.0 miles
Clouds Mostly Cloudy 6000 ft
Mostly Cloudy 7500 ft
Dew Point 67 °F
Humidity 95%
Rainfall 0.00 in
Snow Depth Not available.
UV 0 out of 12
Pollen 7.50 out of 12
Air Quality Not available.
Flu Activity Not available.
SPECI KAOH 200515Z AUTO 00000KT 6SM VCTS BR BKN060 BKN075 21/19 A2982 RMK AO2 LTG DSNT SW-N T02060189 $

More Conditions Fewer Conditions

Pressure 29.82 in
Visibility 6.0 miles
Clouds Mostly Cloudy 6000 ft
Mostly Cloudy 7500 ft
Dew Point 67 °F
Humidity 95%
Rainfall 0.00 in
Snow Depth Not available.
UV 0 out of 12
Pollen 7.50 out of 12
Air Quality Not available.
Flu Activity Not available.
SPECI KAOH 200515Z AUTO 00000KT 6SM VCTS BR BKN060 BKN075 21/19 A2982 RMK AO2 LTG DSNT SW-N T02060189 $

More Conditions Fewer Conditions

10-Day Weather Forecast

Almanac

Astronomy

Aug. 20, 2014 Rise Set
Actual Time 6:52 AM EDT 8:28 PM EDT
Civil Twilight 6:23 AM EDT 8:57 PM EDT
Nautical Twilight 5:48 AM EDT 9:32 PM EDT
Astronomical Twilight 5:10 AM EDT 10:09 PM EDT
Moon 2:30 AM EDT 5:13 PM EDT
Length of Visible Light 14h 33m
Length of Day
13h 35m
Tomorrow will be 2m 28s shorter.
Waning Crescent, 24% of the Moon is Illuminated
Today
Waning Crescent
Aug 25
New
Sep 2
First Quarter
Sep 8
Full
Sep 15
Last Quarter

Today's Extremes

State Highs State Lows

Community

WunderPhotos

Upload Photos

1,745,592 photos uploaded!

Nearby

Snow Depth

Station Depth Elevation
No new snow has been reported.

Earthquake Activity

City Distance Mag. Time & Date
No recent earthquake activity has been reported nearby.
Minimum magnitude displayed is 2.5.

Coastal Water Temperatures

Place Temperature
No Stations Reporting

Nearby Weather Stations